createdAt,value
2023-05-01T00:00:33.821Z,23.70
2023-05-01T00:10:52.274Z,17.90
2023-05-01T00:20:55.865Z,19.80
2023-05-01T00:30:59.453Z,23.30
2023-05-01T00:41:03.158Z,29.10
2023-05-01T00:51:08.647Z,29.40
2023-05-01T01:01:13.406Z,27.30
2023-05-01T01:11:17.421Z,26.20
2023-05-01T01:21:21.425Z,20.50
2023-05-01T01:31:30.044Z,16.80
2023-05-01T01:41:33.151Z,24.90
2023-05-01T01:51:41.257Z,28.30
2023-05-01T02:01:46.382Z,30.30
2023-05-01T02:11:51.272Z,37.70
2023-05-01T02:22:00.522Z,39.80
2023-05-01T02:32:04.722Z,36.50
2023-05-01T02:42:09.006Z,28.60
2023-05-01T02:52:12.765Z,30.30
2023-05-01T03:02:19.923Z,35.20
2023-05-01T03:12:27.318Z,31.70
2023-05-01T03:22:31.124Z,34.30
2023-05-01T03:32:35.304Z,35.00
2023-05-01T03:42:39.085Z,35.60
2023-05-01T03:52:42.625Z,25.70
2023-05-01T04:02:46.906Z,29.70
2023-05-01T04:12:51.139Z,31.10
2023-05-01T04:22:54.515Z,35.60
2023-05-01T04:33:02.443Z,30.70
2023-05-01T04:43:06.608Z,30.00
2023-05-01T04:53:10.550Z,27.70
2023-05-01T05:03:15.821Z,22.70
2023-05-01T05:13:19.549Z,17.90
2023-05-01T05:23:23.497Z,17.00
2023-05-01T05:33:28.582Z,19.40
2023-05-01T05:43:32.354Z,15.20
2023-05-01T05:53:36.012Z,12.40
2023-05-01T06:03:40.101Z,8.80
2023-05-01T06:13:44.456Z,7.20
2023-05-01T06:23:48.523Z,7.00
2023-05-01T06:33:52.159Z,6.10
2023-05-01T06:43:58.904Z,5.30
2023-05-01T06:54:02.458Z,5.70
2023-05-01T07:04:05.077Z,3.80
2023-05-01T07:14:08.626Z,3.40
2023-05-01T07:24:11.856Z,3.00
2023-05-01T07:34:15.366Z,2.20
2023-05-01T07:44:18.922Z,2.20
2023-05-01T07:54:22.622Z,2.60
2023-05-01T08:04:27.353Z,2.40
2023-05-01T08:14:31.381Z,2.30
2023-05-01T08:24:35.238Z,2.30
2023-05-01T08:34:39.140Z,3.30
2023-05-01T08:44:43.035Z,2.50
2023-05-01T08:54:48.189Z,2.10
2023-05-01T09:04:52.915Z,1.90
2023-05-01T09:14:57.523Z,2.80
2023-05-01T09:25:01.672Z,2.30
2023-05-01T09:35:11.977Z,2.20
2023-05-01T09:45:17.261Z,2.50
2023-05-01T09:55:24.826Z,2.00
2023-05-01T10:05:42.476Z,1.80
2023-05-01T10:15:50.396Z,1.60
2023-05-01T10:25:56.042Z,1.60
2023-05-01T10:36:00.741Z,2.20
2023-05-01T10:46:29.429Z,1.60
2023-05-01T10:56:45.740Z,1.80
2023-05-01T11:07:20.332Z,2.40
2023-05-01T11:17:49.015Z,1.80
2023-05-01T11:27:54.668Z,2.70
2023-05-01T11:37:58.274Z,1.40
2023-05-01T11:48:04.119Z,2.10
2023-05-01T11:58:08.847Z,3.70
2023-05-01T12:08:11.946Z,1.10
2023-05-01T12:18:19.983Z,2.00
2023-05-01T12:28:28.038Z,1.50
2023-05-01T12:38:31.849Z,1.70
2023-05-01T12:48:40.842Z,2.30
2023-05-01T12:58:44.415Z,2.00
2023-05-01T13:08:48.687Z,1.70
2023-05-01T13:18:53.146Z,2.30
2023-05-01T13:28:58.094Z,2.10
2023-05-01T13:39:01.958Z,2.40
2023-05-01T13:49:07.514Z,2.80
2023-05-01T13:59:11.347Z,3.30
2023-05-01T14:09:16.384Z,3.50
2023-05-01T14:19:20.077Z,3.10
2023-05-01T14:29:27.265Z,3.50
2023-05-01T14:39:33.260Z,2.60
2023-05-01T14:49:36.480Z,2.70
2023-05-01T14:59:40.561Z,2.30
2023-05-01T15:09:48.013Z,4.10
2023-05-01T15:19:51.779Z,3.30
2023-05-01T15:29:55.898Z,2.50
2023-05-01T15:39:59.803Z,2.50
2023-05-01T15:50:03.268Z,3.00
2023-05-01T16:00:10.038Z,2.30
2023-05-01T16:10:13.712Z,2.70
2023-05-01T16:20:17.714Z,2.90
2023-05-01T16:30:27.258Z,3.80
2023-05-01T16:40:31.290Z,3.30
2023-05-01T16:50:34.171Z,4.40
2023-05-01T17:00:38.644Z,4.40
2023-05-01T17:10:46.469Z,4.30
2023-05-01T17:20:50.420Z,4.60
2023-05-01T17:30:54.064Z,4.70
2023-05-01T17:40:58.371Z,4.30
2023-05-01T17:51:02.532Z,5.10
2023-05-01T18:01:09.753Z,4.20
2023-05-01T18:11:13.767Z,4.80
2023-05-01T18:21:17.700Z,6.80
2023-05-01T18:31:20.494Z,6.00
2023-05-01T18:41:28.066Z,6.50
2023-05-01T18:51:31.795Z,7.20
2023-05-01T19:01:35.469Z,6.40
2023-05-01T19:11:39.072Z,7.30
2023-05-01T19:21:46.231Z,7.50
2023-05-01T19:31:50.701Z,8.80
2023-05-01T19:41:54.482Z,8.10
2023-05-01T19:51:58.151Z,6.50
2023-05-01T20:02:02.167Z,7.50
2023-05-01T20:12:05.608Z,17.70
2023-05-01T20:22:09.562Z,18.30
2023-05-01T20:32:14.082Z,19.10
2023-05-01T20:42:17.686Z,16.90
2023-05-01T20:52:21.304Z,11.30
2023-05-01T21:02:25.142Z,9.70
2023-05-01T21:12:29.178Z,8.30
2023-05-01T21:22:32.766Z,8.00
2023-05-01T21:32:39.435Z,9.00
2023-05-01T21:42:43.254Z,10.60
2023-05-01T21:52:49.014Z,11.40
2023-05-01T22:02:52.807Z,11.20
2023-05-01T22:12:56.816Z,11.10
2023-05-01T22:23:03.383Z,10.70
2023-05-01T22:33:07.055Z,11.20
2023-05-01T22:43:14.038Z,11.40
2023-05-01T22:53:17.739Z,11.50
2023-05-01T23:03:21.951Z,10.30
2023-05-01T23:13:26.852Z,10.70
2023-05-01T23:23:34.005Z,10.20
2023-05-01T23:33:41.019Z,11.80
2023-05-01T23:43:47.566Z,10.20
2023-05-01T23:53:50.440Z,10.90
